Time,TemperatureF,DewpointF,PressureIn,WindDirection,WindDirectionDegrees,WindSpeedMPH,WindSpeedGustMPH,Humidity,HourlyPrecipIn,Conditions,Clouds,dailyrainin,SolarRadiationWatts/m^2,SoftwareType,DateUTC
2013-05-18 00:14:00,40.7,36.0,29.96,SSW,208,3.0,-999.0,83,-99.99,,,0.00,0,weatherlink.com 1.10,2013-05-18 07:14:00,
2013-05-18 00:29:00,41.5,36.0,29.96,SSW,208,2.0,-999.0,82,-99.99,,,0.00,0,weatherlink.com 1.10,2013-05-18 07:29:00,
2013-05-18 00:44:00,41.0,36.0,29.96,SSW,208,3.0,-999.0,83,-99.99,,,0.00,0,weatherlink.com 1.10,2013-05-18 07:44:00,
2013-05-18 00:59:00,41.5,36.0,29.96,SSW,208,0.0,-999.0,82,-99.99,,,0.00,0,weatherlink.com 1.10,2013-05-18 07:59:00,
2013-05-18 01:14:00,41.2,36.0,29.96,SSW,208,4.0,-999.0,82,-99.99,,,0.00,0,weatherlink.com 1.10,2013-05-18 08:14:00,
2013-05-18 01:29:00,40.4,36.0,29.96,SSW,208,0.0,-999.0,83,-99.99,,,0.00,0,weatherlink.com 1.10,2013-05-18 08:29:00,
2013-05-18 01:44:00,39.7,35.0,29.96,SSW,208,0.0,-999.0,84,-99.99,,,0.00,0,weatherlink.com 1.10,2013-05-18 08:44:00,
2013-05-18 01:59:00,39.7,35.0,29.96,SSW,208,0.0,-999.0,84,-99.99,,,0.00,0,weatherlink.com 1.10,2013-05-18 08:59:00,
2013-05-18 02:14:00,39.6,35.0,29.97,SSW,208,2.0,-999.0,83,-99.99,,,0.00,0,weatherlink.com 1.10,2013-05-18 09:14:00,
2013-05-18 02:29:00,39.3,35.0,29.97,SSW,208,1.0,-999.0,83,-99.99,,,0.00,0,weatherlink.com 1.10,2013-05-18 09:29:00,
2013-05-18 02:44:00,38.7,34.0,29.97,SSW,208,3.0,-999.0,84,-99.99,,,0.00,0,weatherlink.com 1.10,2013-05-18 09:44:00,
2013-05-18 02:59:00,36.7,32.0,29.97,SSW,210,3.0,-999.0,84,-99.99,,,0.00,0,weatherlink.com 1.10,2013-05-18 09:59:00,
2013-05-18 03:14:00,37.1,34.0,29.97,SSW,211,5.0,-999.0,88,-99.99,,,0.00,0,weatherlink.com 1.10,2013-05-18 10:14:00,
2013-05-18 03:29:00,38.2,34.0,29.98,SSW,211,3.0,-999.0,86,-99.99,,,0.00,0,weatherlink.com 1.10,2013-05-18 10:29:00,
2013-05-18 03:44:00,38.5,34.0,29.97,SSW,211,5.0,-999.0,83,-99.99,,,0.00,0,weatherlink.com 1.10,2013-05-18 10:44:00,
2013-05-18 03:59:00,37.3,33.0,29.97,SSW,211,4.0,-999.0,85,-99.99,,,0.00,0,weatherlink.com 1.10,2013-05-18 10:59:00,
2013-05-18 04:14:00,37.7,34.0,29.97,SSW,211,4.0,-999.0,85,-99.99,,,0.00,0,weatherlink.com 1.10,2013-05-18 11:14:00,
2013-05-18 04:29:00,40.2,35.0,29.97,SSW,211,0.0,-999.0,83,-99.99,,,0.00,0,weatherlink.com 1.10,2013-05-18 11:29:00,
2013-05-18 04:44:00,39.2,34.0,29.97,SSW,211,4.0,-999.0,81,-99.99,,,0.00,0,weatherlink.com 1.10,2013-05-18 11:44:00,
2013-05-18 04:59:00,37.0,33.0,29.98,SSW,211,5.0,-999.0,85,-99.99,,,0.00,0,weatherlink.com 1.10,2013-05-18 11:59:00,
2013-05-18 05:14:00,38.9,35.0,29.97,SSW,211,0.0,-999.0,84,-99.99,,,0.00,0,weatherlink.com 1.10,2013-05-18 12:14:00,
2013-05-18 05:29:00,39.1,33.0,29.97,SSW,211,1.0,-999.0,80,-99.99,,,0.00,0,weatherlink.com 1.10,2013-05-18 12:29:00,
2013-05-18 05:44:00,40.0,35.0,29.97,SSW,211,2.0,-999.0,81,-99.99,,,0.00,7,weatherlink.com 1.10,2013-05-18 12:44:00,
2013-05-18 05:59:00,40.8,35.0,29.97,SSW,211,0.0,-999.0,79,-99.99,,,0.00,25,weatherlink.com 1.10,2013-05-18 12:59:00,
2013-05-18 06:14:00,37.5,32.0,29.98,SSW,211,4.0,-999.0,81,-99.99,,,0.00,51,weatherlink.com 1.10,2013-05-18 13:14:00,
2013-05-18 06:29:00,38.9,34.0,29.98,SSW,211,2.0,-999.0,82,-99.99,,,0.00,32,weatherlink.com 1.10,2013-05-18 13:29:00,
2013-05-18 06:44:00,39.0,34.0,29.98,SSW,211,1.0,-999.0,81,-99.99,,,0.00,37,weatherlink.com 1.10,2013-05-18 13:44:00,
2013-05-18 06:59:00,40.3,35.0,29.98,SSW,211,1.0,-999.0,81,-99.99,,,0.00,74,weatherlink.com 1.10,2013-05-18 13:59:00,
2013-05-18 07:14:00,39.8,34.0,29.98,SSW,211,2.0,-999.0,79,-99.99,,,0.00,116,weatherlink.com 1.10,2013-05-18 14:14:00,
2013-05-18 07:29:00,40.1,34.0,29.99,SSW,211,2.0,-999.0,78,-99.99,,,0.00,63,weatherlink.com 1.10,2013-05-18 14:29:00,
2013-05-18 07:44:00,41.2,36.0,29.99,SSW,211,2.0,-999.0,80,-99.99,,,0.00,202,weatherlink.com 1.10,2013-05-18 14:44:00,
2013-05-18 07:59:00,42.3,35.0,29.99,SSW,213,2.0,-999.0,76,-99.99,,,0.00,160,weatherlink.com 1.10,2013-05-18 14:59:00,
2013-05-18 08:14:00,42.8,36.0,29.99,West,279,3.0,-999.0,78,-99.99,,,0.00,290,weatherlink.com 1.10,2013-05-18 15:14:00,
2013-05-18 08:29:00,44.0,37.0,29.99,NNW,331,3.0,-999.0,76,-99.99,,,0.00,587,weatherlink.com 1.10,2013-05-18 15:29:00,
2013-05-18 08:44:00,46.4,38.0,29.99,NNW,344,5.0,-999.0,72,-99.99,,,0.00,517,weatherlink.com 1.10,2013-05-18 15:44:00,
2013-05-18 08:59:00,48.4,36.0,29.99,North,360,4.0,-999.0,63,-99.99,,,0.00,366,weatherlink.com 1.10,2013-05-18 15:59:00,
2013-05-18 09:14:00,47.6,36.0,29.99,North,5,4.0,-999.0,64,-99.99,,,0.00,292,weatherlink.com 1.10,2013-05-18 16:14:00,
2013-05-18 09:29:00,47.0,35.0,29.99,NNE,24,4.0,-999.0,64,-99.99,,,0.00,118,weatherlink.com 1.10,2013-05-18 16:29:00,
2013-05-18 09:44:00,47.1,36.0,29.99,NNE,24,1.0,-999.0,66,-99.99,,,0.00,192,weatherlink.com 1.10,2013-05-18 16:44:00,
2013-05-18 09:59:00,47.3,36.0,29.99,NNE,24,3.0,-999.0,65,-99.99,,,0.00,383,weatherlink.com 1.10,2013-05-18 16:59:00,
2013-05-18 10:14:00,48.3,35.0,29.99,NNW,338,4.0,-999.0,61,-99.99,,,0.00,469,weatherlink.com 1.10,2013-05-18 17:14:00,
2013-05-18 10:29:00,49.4,36.0,29.99,NNW,338,4.0,-999.0,61,-99.99,,,0.00,454,weatherlink.com 1.10,2013-05-18 17:29:00,
2013-05-18 10:44:00,50.0,36.0,29.99,NNW,336,2.0,-999.0,58,-99.99,,,0.00,359,weatherlink.com 1.10,2013-05-18 17:44:00,
2013-05-18 10:59:00,50.5,36.0,29.99,North,355,0.0,-999.0,59,-99.99,,,0.00,457,weatherlink.com 1.10,2013-05-18 17:59:00,
2013-05-18 11:14:00,51.2,35.0,29.99,ENE,76,5.0,-999.0,55,-99.99,,,0.00,559,weatherlink.com 1.10,2013-05-18 18:14:00,
2013-05-18 11:29:00,52.3,36.0,29.99,NNE,23,1.0,-999.0,54,-99.99,,,0.00,320,weatherlink.com 1.10,2013-05-18 18:29:00,
2013-05-18 11:44:00,51.9,36.0,30.00,NE,41,5.0,-999.0,55,-99.99,,,0.00,367,weatherlink.com 1.10,2013-05-18 18:44:00,
2013-05-18 11:59:00,51.9,36.0,30.00,NE,55,0.0,-999.0,56,-99.99,,,0.00,496,weatherlink.com 1.10,2013-05-18 18:59:00,
2013-05-18 12:14:00,54.6,37.0,29.99,NE,43,7.0,-999.0,52,-99.99,,,0.00,1092,weatherlink.com 1.10,2013-05-18 19:14:00,
2013-05-18 12:29:00,54.6,37.0,29.99,NNE,24,1.0,-999.0,52,-99.99,,,0.00,1183,weatherlink.com 1.10,2013-05-18 19:29:00,
2013-05-18 12:44:00,55.3,37.0,29.99,ESE,116,1.0,-999.0,50,-99.99,,,0.00,482,weatherlink.com 1.10,2013-05-18 19:44:00,
2013-05-18 12:59:00,54.6,37.0,30.00,NE,45,8.0,-999.0,51,-99.99,,,0.00,378,weatherlink.com 1.10,2013-05-18 19:59:00,
2013-05-18 13:14:00,55.7,37.0,30.00,NE,55,1.0,-999.0,50,-99.99,,,0.00,396,weatherlink.com 1.10,2013-05-18 20:14:00,
2013-05-18 13:29:00,55.1,38.0,30.00,NE,40,2.0,-999.0,53,-99.99,,,0.00,267,weatherlink.com 1.10,2013-05-18 20:29:00,
2013-05-18 13:44:00,55.5,39.0,30.00,North,9,3.0,-999.0,55,-99.99,,,0.00,577,weatherlink.com 1.10,2013-05-18 20:44:00,
2013-05-18 13:59:00,55.4,38.0,30.00,NNE,14,10.0,-999.0,53,-99.99,,,0.00,350,weatherlink.com 1.10,2013-05-18 20:59:00,
2013-05-18 14:14:00,55.0,39.0,30.00,North,355,14.0,-999.0,55,-99.99,,,0.00,341,weatherlink.com 1.10,2013-05-18 21:14:00,
2013-05-18 14:29:00,52.8,40.0,30.01,NNW,345,7.0,-999.0,63,-99.99,,,0.00,276,weatherlink.com 1.10,2013-05-18 21:29:00,
2013-05-18 14:44:00,53.8,41.0,30.00,NW,312,10.0,-999.0,62,-99.99,,,0.00,995,weatherlink.com 1.10,2013-05-18 21:44:00,
2013-05-18 14:59:00,54.8,39.0,30.01,NW,310,9.0,-999.0,56,-99.99,,,0.00,355,weatherlink.com 1.10,2013-05-18 21:59:00,
2013-05-18 15:14:00,55.0,39.0,30.01,NW,321,7.0,-999.0,56,-99.99,,,0.00,264,weatherlink.com 1.10,2013-05-18 22:14:00,
2013-05-18 15:29:00,53.4,41.0,30.01,North,350,6.0,-999.0,64,-99.99,,,0.00,339,weatherlink.com 1.10,2013-05-18 22:29:00,
2013-05-18 15:44:00,53.5,40.0,30.01,NNW,344,13.0,-999.0,60,-99.99,,,0.00,278,weatherlink.com 1.10,2013-05-18 22:44:00,
2013-05-18 15:59:00,54.6,40.0,30.01,NNW,343,9.0,-999.0,58,-99.99,,,0.00,294,weatherlink.com 1.10,2013-05-18 22:59:00,
2013-05-18 16:14:00,53.6,38.0,30.02,NNW,329,15.0,-999.0,57,-99.99,,,0.00,234,weatherlink.com 1.10,2013-05-18 23:14:00,
2013-05-18 16:29:00,52.2,38.0,30.02,NW,312,22.0,-999.0,59,-99.99,,,0.00,172,weatherlink.com 1.10,2013-05-18 23:29:00,
2013-05-18 16:44:00,52.0,38.0,30.02,NNW,333,12.0,-999.0,60,-99.99,,,0.00,144,weatherlink.com 1.10,2013-05-18 23:44:00,
2013-05-18 16:59:00,51.6,39.0,30.04,NW,318,10.0,-999.0,63,-99.99,,,0.00,167,weatherlink.com 1.10,2013-05-18 23:59:00,
2013-05-18 17:14:00,50.1,41.0,30.04,NW,323,11.0,-999.0,70,-99.99,,,0.00,181,weatherlink.com 1.10,2013-05-19 00:14:00,
2013-05-18 17:29:00,50.5,40.0,30.04,NW,324,11.0,-999.0,68,-99.99,,,0.01,232,weatherlink.com 1.10,2013-05-19 00:29:00,
2013-05-18 17:44:00,53.0,39.0,30.04,NW,317,24.0,-999.0,59,-99.99,,,0.01,512,weatherlink.com 1.10,2013-05-19 00:44:00,
2013-05-18 17:59:00,53.0,38.0,30.05,NW,321,17.0,-999.0,57,-99.99,,,0.01,427,weatherlink.com 1.10,2013-05-19 00:59:00,
2013-05-18 18:14:00,52.7,38.0,30.05,NW,304,19.0,-999.0,57,-99.99,,,0.01,380,weatherlink.com 1.10,2013-05-19 01:14:00,
2013-05-18 18:29:00,51.9,38.0,30.05,NW,325,19.0,-999.0,60,-99.99,,,0.01,283,weatherlink.com 1.10,2013-05-19 01:29:00,
2013-05-18 18:44:00,51.4,38.0,30.06,NNW,328,15.0,-999.0,60,-99.99,,,0.01,234,weatherlink.com 1.10,2013-05-19 01:44:00,
2013-05-18 18:59:00,50.7,37.0,30.06,North,360,22.0,-999.0,59,-99.99,,,0.01,54,weatherlink.com 1.10,2013-05-19 01:59:00,
2013-05-18 19:14:00,50.2,36.0,30.07,NNW,335,18.0,-999.0,59,-99.99,,,0.01,109,weatherlink.com 1.10,2013-05-19 02:14:00,
2013-05-18 19:29:00,49.8,36.0,30.07,NW,324,9.0,-999.0,59,-99.99,,,0.01,70,weatherlink.com 1.10,2013-05-19 02:29:00,
2013-05-18 19:44:00,49.3,35.0,30.08,NW,322,13.0,-999.0,58,-99.99,,,0.01,37,weatherlink.com 1.10,2013-05-19 02:44:00,
2013-05-18 19:59:00,48.5,35.0,30.08,NW,323,17.0,-999.0,59,-99.99,,,0.01,25,weatherlink.com 1.10,2013-05-19 02:59:00,
2013-05-18 20:14:00,47.5,35.0,30.09,NNW,328,4.0,-999.0,62,-99.99,,,0.01,11,weatherlink.com 1.10,2013-05-19 03:14:00,
2013-05-18 20:29:00,46.6,35.0,30.09,NNW,338,5.0,-999.0,65,-99.99,,,0.01,0,weatherlink.com 1.10,2013-05-19 03:29:00,
2013-05-18 20:44:00,46.1,35.0,30.10,NNW,342,4.0,-999.0,66,-99.99,,,0.01,0,weatherlink.com 1.10,2013-05-19 03:44:00,
2013-05-18 20:59:00,45.1,36.0,30.11,NW,324,4.0,-999.0,70,-99.99,,,0.01,0,weatherlink.com 1.10,2013-05-19 03:59:00,
2013-05-18 21:14:00,44.7,35.0,30.11,NW,304,7.0,-999.0,70,-99.99,,,0.01,0,weatherlink.com 1.10,2013-05-19 04:14:00,
2013-05-18 21:29:00,44.7,35.0,30.12,WNW,294,2.0,-999.0,70,-99.99,,,0.01,0,weatherlink.com 1.10,2013-05-19 04:29:00,
2013-05-18 21:44:00,44.4,36.0,30.13,WNW,294,0.0,-999.0,71,-99.99,,,0.01,0,weatherlink.com 1.10,2013-05-19 04:44:00,
2013-05-18 21:59:00,43.8,36.0,30.14,WNW,294,0.0,-999.0,73,-99.99,,,0.01,0,weatherlink.com 1.10,2013-05-19 04:59:00,
2013-05-18 22:14:00,41.7,34.0,30.14,WSW,240,5.0,-999.0,74,-99.99,,,0.01,0,weatherlink.com 1.10,2013-05-19 05:14:00,
2013-05-18 22:29:00,40.9,35.0,30.14,SSW,209,2.0,-999.0,78,-99.99,,,0.01,0,weatherlink.com 1.10,2013-05-19 05:29:00,
2013-05-18 22:44:00,40.7,34.0,30.14,SW,214,5.0,-999.0,78,-99.99,,,0.01,0,weatherlink.com 1.10,2013-05-19 05:44:00,
2013-05-18 22:59:00,39.3,34.0,30.14,SW,215,5.0,-999.0,80,-99.99,,,0.01,0,weatherlink.com 1.10,2013-05-19 05:59:00,
2013-05-18 23:14:00,39.2,34.0,30.14,SSW,213,4.0,-999.0,81,-99.99,,,0.01,0,weatherlink.com 1.10,2013-05-19 06:14:00,
2013-05-18 23:29:00,40.5,34.0,30.14,SSW,213,4.0,-999.0,79,-99.99,,,0.01,0,weatherlink.com 1.10,2013-05-19 06:29:00,
2013-05-18 23:44:00,40.4,34.0,30.14,SSW,213,5.0,-999.0,78,-99.99,,,0.01,0,weatherlink.com 1.10,2013-05-19 06:44:00,
2013-05-18 23:59:00,40.0,34.0,30.14,SW,221,3.0,-999.0,78,-99.99,,,0.00,0,weatherlink.com 1.10,2013-05-19 06:59:00,